ADDS METAR Data INFO
IDs: Format: Raw Decoded Include TAF

Data at: 1516 UTC 23 Oct 2017

K0E0 231455Z AUTO 35019G23KT 10SM CLR 16/M06 A3039 RMK AO2 T01601058
K0E0 231435Z AUTO 34017G25KT 10SM CLR 16/M06 A3037 RMK AO2 T01561061
K0E0 231415Z AUTO 33019KT 10SM CLR 14/M06 A3037 RMK AO2 T01381058
K0E0 231355Z AUTO 32015KT 10SM CLR 13/M06 A3036 RMK AO2 T01261058
K0E0 231335Z AUTO 33014KT 10SM CLR 11/M06 A3035 RMK AO2 T01051060
K0E0 231315Z AUTO 34008KT 10SM CLR 11/M06 A3035 RMK AO2 T01061060
K0E0 231255Z AUTO 32014KT 10SM CLR 12/M06 A3035 RMK AO2 T01201063
K0E0 231235Z AUTO 35016KT 10SM CLR 12/M06 A3035 RMK AO2 T01191065
K0E0 231215Z AUTO 34013G18KT 10SM CLR 13/M06 A3035 RMK AO2 T01251065
K0E0 231155Z AUTO 34010KT 10SM CLR 11/M06 A3035 RMK AO2 T01121063 10146 20033
K0E0 231135Z AUTO 35008G17KT 10SM CLR 10/M06 A3035 RMK AO2 T01001060
K0E0 231115Z AUTO 04003KT 10SM CLR 09/M06 A3035 RMK AO2 T00921061
K0E0 231055Z AUTO 34009KT 10SM CLR 13/M07 A3036 RMK AO2 T01311071
K0E0 231035Z AUTO 35012G21KT 320V020 10SM CLR 15/M07 A3035 RMK AO2 T01451075
K0E0 231015Z AUTO 36013G20KT 10SM CLR 11/M06 A3035 RMK AO2 T01091063
K0E0 230955Z AUTO 00000KT 10SM CLR 04/M04 A3036 RMK AO2 T00431039
K0E0 230935Z AUTO 00000KT 10SM CLR 04/M04 A3036 RMK AO2 T00431040
K0E0 230915Z AUTO 00000KT 10SM CLR 04/M04 A3037 RMK AO2 T00361039
K0E0 230855Z AUTO 00000KT 10SM CLR 05/M04 A3037 RMK AO2 T00451039
K0E0 230835Z AUTO 19004KT 10SM CLR 05/M04 A3037 RMK AO2 T00531041
K0E0 230815Z AUTO 00000KT 10SM CLR 09/M05 A3037 RMK AO2 T00861050
K0E0 230755Z AUTO 09003KT 10SM CLR 08/M05 A3037 RMK AO2 T00771048
K0E0 230735Z AUTO 00000KT 10SM CLR 08/M05 A3037 RMK AO2 T00841048
K0E0 230715Z AUTO 09005KT 10SM CLR 09/M05 A3037 RMK AO2 T00921052
K0E0 230655Z AUTO 34004KT 10SM CLR 11/M05 A3037 RMK AO2 T01101052
K0E0 230635Z AUTO 05005KT 10SM CLR 11/M05 A3037 RMK AO2 T01051050
K0E0 230615Z AUTO 07003KT 10SM CLR 10/M05 A3037 RMK AO2 T01031050
K0E0 230555Z AUTO 36010G17KT 330V030 10SM CLR 15/M06 A3036 RMK AO2 T01461064 10179 20108 402070000
K0E0 230535Z AUTO 31012G21KT 10SM CLR 15/M06 A3036 RMK AO2 T01521063
K0E0 230515Z AUTO 31011KT 10SM CLR 14/M06 A3035 RMK AO2 T01401065
K0E0 230455Z AUTO 32013KT 10SM CLR 12/M06 A3035 RMK AO2 T01181062
K0E0 230435Z AUTO 32010KT 10SM CLR 13/M05 A3036 RMK AO2 T01251052
K0E0 230415Z AUTO 35008KT 10SM CLR 13/M05 A3035 RMK AO2 T01261047
K0E0 230355Z AUTO 32008KT 10SM CLR 14/M04 A3036 RMK AO2 T01351045
K0E0 230335Z AUTO 32008KT 10SM CLR 14/M04 A3035 RMK AO2 T01411040
K0E0 230315Z AUTO 32007KT 10SM CLR 13/M03 A3035 RMK AO2 T01251032
K0E0 230255Z AUTO 29009KT 10SM CLR 14/M03 A3035 RMK AO2 T01381035
K0E0 230235Z AUTO 29008KT 10SM CLR 14/M03 A3035 RMK AO2 T01411035
K0E0 230215Z AUTO 31011KT 10SM CLR 15/M03 A3035 RMK AO2 T01461035
K0E0 230155Z AUTO 31013KT 10SM CLR 14/M04 A3035 RMK AO2 T01421037
K0E0 230135Z AUTO 28007KT 10SM CLR 15/M04 A3035 RMK AO2 T01501041
K0E0 230115Z AUTO 29004KT 10SM CLR 14/M04 A3035 RMK AO2 T01431041
K0E0 230055Z AUTO 30005KT 10SM CLR 16/M04 A3035 RMK AO2 T01611040
K0E0 230035Z AUTO 30003KT 10SM CLR 16/M04 A3035 RMK AO2 T01641040
K0E0 230015Z AUTO 32006KT 10SM CLR 17/M04 A3034 RMK AO2 T01681040
K0E0 222355Z AUTO 30007KT 10SM CLR 18/M04 A3034 RMK AO2 T01841041 10207 20165
K0E0 222335Z AUTO 29009KT 10SM CLR 19/M04 A3033 RMK AO2 T01901044
K0E0 222315Z AUTO 31015G27KT 10SM CLR 19/M05 A3032 RMK AO2 T01921046
K0E0 222255Z AUTO 29015G20KT 10SM CLR 20/M05 A3031 RMK AO2 T01981048
K0E0 222235Z AUTO 29014KT 10SM CLR 20/M05 A3031 RMK AO2 T02011050
K0E0 222215Z AUTO 29014G20KT 10SM CLR 20/M05 A3031 RMK AO2 T02041054
K0E0 222150Z AUTO 30012G19KT 10SM CLR 21/M04 A3031 RMK AO2 T02071045
K0E0 222135Z AUTO 30014G21KT 10SM CLR 21/M05 A3031 RMK AO2 T02061054
K0E0 222115Z AUTO 31012G21KT 10SM CLR 20/M06 A3032 RMK AO2 T01991065
K0E0 222055Z AUTO 31018G23KT 10SM CLR 20/M07 A3032 RMK AO2 T01981066
K0E0 222035Z AUTO 30019KT 10SM CLR 20/M07 A3032 RMK AO2 T01961066
K0E0 222015Z AUTO 30012G18KT 10SM CLR 20/M07 A3034 RMK AO2 T02001066
K0E0 221950Z AUTO 32011KT 10SM CLR 19/M07 A3035 RMK AO2 T01931071
K0E0 221935Z AUTO 28007KT 10SM CLR 19/M07 A3037 RMK AO2 T01861075
K0E0 221915Z AUTO 28006KT 10SM CLR 18/M08 A3038 RMK AO2 T01791079
K0E0 221855Z AUTO 32010KT 10SM CLR 18/M08 A3039 RMK AO2 T01751082
K0E0 221835Z AUTO 31010G14KT 10SM CLR 17/M09 A3040 RMK AO2 T01731087
K0E0 221815Z AUTO 29012G17KT 10SM CLR 17/M09 A3041 RMK AO2 T01681091
K0E0 221755Z AUTO 31010G14KT 10SM CLR 17/M09 A3043 RMK AO2 T01671091 10167 20005
K0E0 221730Z AUTO 31010G17KT 10SM CLR 16/M09 A3041 RMK AO2 T01631089
K0E0 221715Z AUTO 30011G17KT 10SM CLR 16/M09 A3041 RMK AO2 T01611089
K0E0 221655Z AUTO 29008KT 10SM CLR 15/M10 A3041 RMK AO2 T01521099
K0E0 221635Z AUTO 30013G17KT 10SM CLR 15/M10 A3041 RMK AO2 T01461104
K0E0 221615Z AUTO 32014G18KT 10SM CLR 14/M11 A3041 RMK AO2 T01381114
K0E0 221555Z AUTO 32007KT 10SM CLR 12/M11 A3041 RMK AO2 T01241114
K0E0 221535Z AUTO 30006KT 10SM CLR 11/M12 A3041 RMK AO2 T01131125
K0E0 221515Z AUTO 31006KT 10SM CLR 09/M11 A3040 RMK AO2 T00901106
K0E0 221455Z AUTO 00000KT 10SM CLR 07/M11 A3040 RMK AO2 T00711109
K0E0 221435Z AUTO 00000KT 10SM CLR 06/M11 A3040 RMK AO2 T00561110
K0E0 221415Z AUTO 09004KT 10SM CLR 04/M10 A3039 RMK AO2 T00391104
K0E0 221355Z AUTO 00000KT 10SM CLR 03/M12 A3038 RMK AO2 T00331117
K0E0 221335Z AUTO 00000KT 10SM CLR 01/M11 A3037 RMK AO2 T00111113
K0E0 221315Z AUTO 09003KT 10SM CLR 02/M12 A3038 RMK AO2 T00231124
K0E0 221255Z AUTO 29006KT 10SM CLR 02/M13 A3037 RMK AO2 T00211126
K0E0 221235Z AUTO 28009KT 10SM CLR 03/M13 A3037 RMK AO2 T00291130
K0E0 221215Z AUTO 29009KT 10SM CLR 03/M13 A3037 RMK AO2 T00271130
K0E0 221155Z AUTO 29010KT 10SM CLR 04/M14 A3037 RMK AO2 T00431136 10056 20000
K0E0 221135Z AUTO 28008KT 10SM CLR 04/M13 A3037 RMK AO2 T00401135
K0E0 221115Z AUTO 28008KT 10SM CLR 04/M13 A3036 RMK AO2 T00411135
K0E0 221055Z AUTO 27008KT 10SM CLR 03/M13 A3035 RMK AO2 T00261130
K0E0 221035Z AUTO 29006KT 10SM CLR 02/M13 A3034 RMK AO2 T00191128
K0E0 221015Z AUTO 26004KT 10SM CLR 02/M13 A3034 RMK AO2 T00171126
K0E0 220950Z AUTO 25005KT 10SM CLR 02/M13 A3034 RMK AO2 T00231130
K0E0 220935Z AUTO 22004KT 10SM CLR 00/M11 A3034 RMK AO2 T00001111
K0E0 220915Z AUTO 29006KT 10SM CLR 02/M13 A3033 RMK AO2 T00211131
K0E0 220855Z AUTO 34007KT 10SM CLR 03/M13 A3034 RMK AO2 T00271130
K0E0 220835Z AUTO 01004KT 10SM CLR 03/M13 A3034 RMK AO2 T00251132
K0E0 220815Z AUTO 33004KT 10SM CLR 04/M14 A3032 RMK AO2 T00421141
K0E0 220755Z AUTO 32006KT 10SM CLR 03/M13 A3032 RMK AO2 T00331134
K0E0 220735Z AUTO 33003KT 10SM CLR 05/M14 A3031 RMK AO2 T00501145
K0E0 220715Z AUTO 30004KT 10SM CLR 05/M15 A3031 RMK AO2 T00501146
K0E0 220655Z AUTO 31006KT 10SM CLR 03/M13 A3031 RMK AO2 T00261130
K0E0 220635Z AUTO 32007KT 10SM CLR 04/M13 A3030 RMK AO2 T00371133
K0E0 220615Z AUTO 33007KT 10SM CLR 04/M14 A3029 RMK AO2 T00411137
K0E0 220555Z AUTO 32008KT 10SM CLR 06/M14 A3029 RMK AO2 T00601141 10139 20049 401840049
K0E0 220535Z AUTO 36008KT 10SM CLR 05/M13 A3029 RMK AO2 T00531134
K0E0 220515Z AUTO 31009KT 10SM CLR 07/M14 A3029 RMK AO2 T00661142
K0E0 220455Z AUTO 31008KT 10SM CLR 08/M16 A3029 RMK AO2 T00781157
K0E0 220435Z AUTO 29007KT 10SM CLR 08/M15 A3028 RMK AO2 T00781153
K0E0 220415Z AUTO 21003KT 10SM CLR 06/M13 A3028 RMK AO2 T00581134
K0E0 220355Z AUTO 20005KT 10SM CLR 05/M13 A3027 RMK AO2 T00541133
K0E0 220335Z AUTO 35009KT 10SM CLR 08/M14 A3025 RMK AO2 T00791140